Terminal Aerodrome Forecast
Issued by NWS

Home | Current Version | Previous Version | Text Only | Print | Product List | Glossary On
Versions: 1 2 3 4 5 6 7 8 9 10 11 12 13 14 15 16 17
000
FTUS43 KBIS 252324
TAFDIK
TAF
KDIK 252324Z 2600/2624 26009KT P6SM BKN090
     FM260300 22005KT P6SM SCT110
     FM261600 21008KT P6SM BKN200
     FM262300 18010KT P6SM BKN080=

USA.gov is the U.S. government's official web portal to all federal, state and local government web resources and services.